Time;durP1;ratioP1;P1;durP2;ratioP2;P2;SDS_P1;SDS_P2;PMS_P1;PMS_P2;Temp;Humidity;BMP_temperature;BMP_pressure;BME280_temperature;BME280_humidity;BME280_pressure;Samples;Min_cycle;Max_cycle;Signal;HPM_P1;HPM_P2
2022/10/14 00:04:29;;;;;;;;;;;;;;;;;;10538383;28;20337;-62
2022/10/14 00:09:31;;;;;;;;;;;;;;;;;;10539871;28;19924;-62
2022/10/14 00:14:33;;;;;;;;;;;;;;;;;;10539330;28;19924;-62
2022/10/14 00:19:35;;;;;;;;;;;;;;;;;;10537824;28;19950;-62
2022/10/14 00:24:38;;;;;;;;;;;;;;;;;;10538850;28;19997;-62
2022/10/14 00:29:40;;;;;;;;;;;;;;;;;;10538431;28;19924;-62
2022/10/14 00:34:42;;;;;;;;;;;;;;;;;;10539387;28;19924;-62
2022/10/14 00:39:44;;;;;;;;;;;;;;;;;;10538343;28;19964;-62
2022/10/14 00:44:46;;;;;;;;;;;;;;;;;;10545143;28;19924;-62
2022/10/14 00:49:48;;;;;;;;;;;;;;;;;;10545040;28;20374;-62
2022/10/14 00:54:50;;;;;;;;;;;;;;;;;;10545784;28;19924;-62
2022/10/14 00:59:52;;;;;;;;;;;;;;;;;;10544514;28;19924;-62
2022/10/14 01:04:54;;;;;;;;;;;;;;;;;;10545671;28;19928;-62
2022/10/14 01:09:56;;;;;;;;;;;;;;;;;;10545182;28;19932;-62
2022/10/14 01:14:58;;;;;;;;;;;;;;;;;;10544960;28;19928;-62
2022/10/14 01:20:00;;;;;;;;;;;;;;;;;;10544408;28;19964;-62
2022/10/14 01:25:02;;;;;;;;;;;;;;;;;;10543934;28;20248;-62
2022/10/14 01:30:05;;;;;;;;;;;;;;;;;;10544992;28;19978;-62
2022/10/14 01:35:07;;;;;;;;;;;;;;;;;;10544809;28;19925;-62
2022/10/14 01:40:08;;;;;;;;;;;;;;;;;;10542547;28;19924;-62
2022/10/14 01:45:10;;;;;;;;;;;;;;;;;;10544427;28;19928;-62
2022/10/14 01:50:13;;;;;;;;;;;;;;;;;;10542167;28;20371;-62
2022/10/14 01:55:15;;;;;;;;;;;;;;;;;;10522206;28;19924;-62
2022/10/14 02:05:55;;;;;;;;;;;;;;;;;;10499981;28;19963;-62
2022/10/14 02:10:57;;;;;;;;;;;;;;;;;;10501276;28;19986;-62
2022/10/14 02:16:03;;;;;;;;;;;;;;;;;;10529077;28;19969;-62
2022/10/14 02:21:05;;;;;;;;;;;;;;;;;;10511708;28;20343;-62
2022/10/14 02:26:07;;;;;;;;;;;;;;;;;;10503876;28;19924;-62
2022/10/14 02:31:09;;;;;;;;;;;;;;;;;;10542590;28;19924;-62
2022/10/14 02:36:11;;;;;;;;;;;;;;;;;;10540173;28;20333;-62
2022/10/14 02:41:13;;;;;;;;;;;;;;;;;;10510455;28;19985;-62
2022/10/14 02:46:15;;;;;;;;;;;;;;;;;;10504520;28;19924;-62
2022/10/14 02:51:17;;;;;;;;;;;;;;;;;;10541793;28;19957;-62
2022/10/14 02:56:19;;;;;;;;;;;;;;;;;;10540161;28;19936;-62
2022/10/14 03:01:21;;;;;;;;;;;;;;;;;;10540345;28;19983;-62
2022/10/14 03:06:23;;;;;;;;;;;;;;;;;;10541155;28;19931;-62
2022/10/14 03:11:26;;;;;;;;;;;;;;;;;;10541242;28;19924;-62
2022/10/14 03:16:28;;;;;;;;;;;;;;;;;;10539555;28;19997;-62
2022/10/14 03:21:30;;;;;;;;;;;;;;;;;;10538302;28;19924;-62
2022/10/14 03:26:32;;;;;;;;;;;;;;;;;;10540795;28;19938;-62
2022/10/14 03:31:34;;;;;;;;;;;;;;;;;;10540676;28;19923;-62
2022/10/14 03:36:36;;;;;;;;;;;;;;;;;;10538840;28;19936;-62
2022/10/14 03:41:38;;;;;;;;;;;;;;;;;;10538826;28;19924;-62
2022/10/14 03:46:40;;;;;;;;;;;;;;;;;;10539204;28;19928;-62
2022/10/14 03:51:42;;;;;;;;;;;;;;;;;;10540486;28;19970;-62
2022/10/14 03:56:44;;;;;;;;;;;;;;;;;;10539398;28;19990;-62
2022/10/14 04:01:46;;;;;;;;;;;;;;;;;;10538822;28;19924;-62
2022/10/14 04:06:49;;;;;;;;;;;;;;;;;;10539945;28;19924;-62
2022/10/14 04:11:51;;;;;;;;;;;;;;;;;;10539858;28;19924;-62
2022/10/14 04:16:53;;;;;;;;;;;;;;;;;;10539842;28;19924;-62
2022/10/14 04:21:55;;;;;;;;;;;;;;;;;;10545822;28;20274;-62
2022/10/14 04:26:57;;;;;;;;;;;;;;;;;;10547599;28;19928;-62
2022/10/14 04:31:59;;;;;;;;;;;;;;;;;;10546641;28;20378;-62
2022/10/14 04:37:02;;;;;;;;;;;;;;;;;;10544774;28;19924;-62
2022/10/14 04:42:04;;;;;;;;;;;;;;;;;;10545333;28;20420;-62
2022/10/14 04:47:06;;;;;;;;;;;;;;;;;;10544833;28;19977;-62
2022/10/14 04:52:08;;;;;;;;;;;;;;;;;;10546433;28;19974;-62
2022/10/14 04:57:10;;;;;;;;;;;;;;;;;;10546182;28;19974;-62
2022/10/14 05:02:12;;;;;;;;;;;;;;;;;;10544101;28;20441;-62
2022/10/14 05:07:14;;;;;;;;;;;;;;;;;;10544451;28;20019;-61
2022/10/14 05:12:16;;;;;;;;;;;;;;;;;;10543162;28;19924;-61
2022/10/14 05:17:19;;;;;;;;;;;;;;;;;;10570069;28;19989;-61
2022/10/14 05:22:21;;;;;;;;;;;;;;;;;;10543064;28;19924;-62
2022/10/14 05:27:23;;;;;;;;;;;;;;;;;;10544558;28;19963;-61
2022/10/14 05:32:25;;;;;;;;;;;;;;;;;;10544982;28;20045;-62
2022/10/14 05:37:27;;;;;;;;;;;;;;;;;;10544769;28;20045;-62
2022/10/14 05:42:29;;;;;;;;;;;;;;;;;;10544829;28;19924;-62
2022/10/14 05:47:31;;;;;;;;;;;;;;;;;;10543871;28;19924;-62
2022/10/14 05:52:34;;;;;;;;;;;;;;;;;;10544107;28;19924;-62
2022/10/14 05:57:36;;;;;;;;;;;;;;;;;;10543946;28;19974;-63
2022/10/14 06:02:38;;;;;;;;;;;;;;;;;;10543264;28;19950;-62
2022/10/14 06:07:40;;;;;;;;;;;;;;;;;;10543559;28;19924;-62
2022/10/14 06:12:42;;;;;;;;;;;;;;;;;;10543153;28;19973;-62
2022/10/14 06:17:44;;;;;;;;;;;;;;;;;;10543099;28;19946;-62
2022/10/14 06:22:46;;;;;;;;;;;;;;;;;;10542562;28;19931;-62
2022/10/14 06:27:48;;;;;;;;;;;;;;;;;;10542128;28;20353;-62
2022/10/14 06:32:50;;;;;;;;;;;;;;;;;;10542534;28;19928;-62
2022/10/14 06:37:52;;;;;;;;;;;;;;;;;;10541756;28;20325;-62
2022/10/14 06:42:55;;;;;;;;;;;;;;;;;;10541611;28;19977;-63
2022/10/14 06:47:57;;;;;;;;;;;;;;;;;;10541559;28;19924;-63
2022/10/14 06:52:59;;;;;;;;;;;;;;;;;;10541164;28;20337;-63
2022/10/14 06:58:01;;;;;;;;;;;;;;;;;;10541666;28;19945;-63
2022/10/14 07:03:03;;;;;;;;;;;;;;;;;;10541121;28;19950;-63
2022/10/14 07:08:05;;;;;;;;;;;;;;;;;;10540674;28;19970;-63
2022/10/14 07:13:08;;;;;;;;;;;;;;;;;;10541552;28;19924;-63
2022/10/14 07:18:10;;;;;;;;;;;;;;;;;;10541595;28;19924;-63
2022/10/14 07:23:12;;;;;;;;;;;;;;;;;;10540216;28;19924;-63
2022/10/14 07:28:14;;;;;;;;;;;;;;;;;;10540143;28;19978;-63
2022/10/14 07:33:16;;;;;;;;;;;;;;;;;;10540535;28;20367;-63
2022/10/14 07:38:18;;;;;;;;;;;;;;;;;;10540576;28;20049;-63
2022/10/14 07:43:20;;;;;;;;;;;;;;;;;;10540312;28;19934;-63
2022/10/14 07:48:22;;;;;;;;;;;;;;;;;;10539678;28;19932;-63
2022/10/14 07:53:33;;;;;;;;;;;;;;;;;;10544966;28;19931;-63
2022/10/14 07:58:35;;;;;;;;;;;;;;;;;;10530785;28;19924;-63
2022/10/14 08:03:40;;;;;;;;;;;;;;;;;;10548448;28;19924;-62
2022/10/14 08:08:42;;;;;;;;;;;;;;;;;;10547770;28;20373;-62
2022/10/14 08:13:45;;;;;;;;;;;;;;;;;;10548005;28;19936;-63
2022/10/14 08:18:47;;;;;;;;;;;;;;;;;;10547307;28;20020;-62
2022/10/14 08:23:49;;;;;;;;;;;;;;;;;;10547668;28;19981;-62
2022/10/14 08:28:51;;;;;;;;;;;;;;;;;;10547553;28;19928;-62
2022/10/14 08:33:53;;;;;;;;;;;;;;;;;;10546695;28;20278;-62
2022/10/14 08:38:55;;;;;;;;;;;;;;;;;;10546436;28;20275;-63
2022/10/14 08:43:57;;;;;;;;;;;;;;;;;;10546249;28;20363;-63
2022/10/14 08:48:59;;;;;;;;;;;;;;;;;;10546233;28;19928;-62
2022/10/14 08:54:04;;;;;;;;;;;;;;;;;;10546138;28;19925;-62
2022/10/14 08:59:07;;;;;;;;;;;;;;;;;;10546397;28;19954;-62
2022/10/14 09:04:09;;;;;;;;;;;;;;;;;;10545032;28;20260;-62
2022/10/14 09:09:11;;;;;;;;;;;;;;;;;;10545340;28;19924;-63
2022/10/14 09:14:13;;;;;;;;;;;;;;;;;;10545594;28;19924;-62
2022/10/14 09:19:15;;;;;;;;;;;;;;;;;;10545895;28;19925;-62
2022/10/14 09:24:17;;;;;;;;;;;;;;;;;;10544552;28;20321;-62
2022/10/14 09:29:20;;;;;;;;;;;;;;;;;;10546256;28;19928;-62
2022/10/14 09:34:22;;;;;;;;;;;;;;;;;;10544946;28;19931;-62
2022/10/14 09:39:24;;;;;;;;;;;;;;;;;;10544765;28;19978;-62
2022/10/14 09:44:26;;;;;;;;;;;;;;;;;;10543841;28;20440;-63
2022/10/14 09:49:28;;;;;;;;;;;;;;;;;;10543651;28;19950;-62
2022/10/14 09:54:30;;;;;;;;;;;;;;;;;;10543491;28;20268;-62
2022/10/14 09:59:32;;;;;;;;;;;;;;;;;;10526060;28;19928;-62
2022/10/14 10:04:34;;;;;;;;;;;;;;;;;;10543624;28;19924;-62
2022/10/14 10:09:36;;;;;;;;;;;;;;;;;;10542899;28;20264;-62
2022/10/14 10:14:38;;;;;;;;;;;;;;;;;;10542514;28;19924;-62
2022/10/14 10:19:44;;;;;;;;;;;;;;;;;;10543110;28;19970;-62
2022/10/14 10:24:46;;;;;;;;;;;;;;;;;;10542822;28;19928;-62
2022/10/14 10:29:48;;;;;;;;;;;;;;;;;;10542116;28;19928;-62
2022/10/14 10:34:50;;;;;;;;;;;;;;;;;;10541940;28;19932;-63
2022/10/14 10:39:52;;;;;;;;;;;;;;;;;;10542365;28;19924;-63
2022/10/14 10:44:56;;;;;;;;;;;;;;;;;;10541888;28;19924;-62
2022/10/14 10:49:59;;;;;;;;;;;;;;;;;;10541293;28;19924;-62
2022/10/14 10:55:01;;;;;;;;;;;;;;;;;;10541821;28;19999;-62
2022/10/14 11:00:04;;;;;;;;;;;;;;;;;;10540891;28;19924;-63
2022/10/14 11:05:06;;;;;;;;;;;;;;;;;;10548356;22;19924;-65
2022/10/14 11:15:29;;;;;;;;;;;;;;;;;;10541239;28;19924;-65
2022/10/14 11:20:33;;;;;;;;;;;;;;;;;;10540446;28;19928;-65
2022/10/14 11:25:35;;;;;;;;;;;;;;;;;;10540133;28;19931;-64
2022/10/14 11:30:37;;;;;;;;;;;;;;;;;;10540197;28;19932;-64
2022/10/14 11:35:39;;;;;;;;;;;;;;;;;;10540077;28;19924;-66
2022/10/14 11:40:41;;;;;;;;;;;;;;;;;;10539935;28;20366;-66
2022/10/14 11:45:45;;;;;;;;;;;;;;;;;;10540410;28;19970;-66
2022/10/14 11:50:47;;;;;;;;;;;;;;;;;;10540102;28;19969;-66
2022/10/14 11:55:49;;;;;;;;;;;;;;;;;;10540187;28;19924;-66
2022/10/14 12:00:51;;;;;;;;;;;;;;;;;;10539306;28;19924;-66
2022/10/14 12:05:53;;;;;;;;;;;;;;;;;;10540059;28;19928;-66
2022/10/14 12:10:55;;;;;;;;;;;;;;;;;;10540006;28;19924;-66
2022/10/14 12:15:59;;;;;;;;;;;;;;;;;;10539856;28;19924;-65
2022/10/14 12:21:01;;;;;;;;;;;;;;;;;;10539202;28;20370;-65
2022/10/14 12:26:03;;;;;;;;;;;;;;;;;;10539654;28;19928;-65
2022/10/14 12:31:06;;;;;;;;;;;;;;;;;;10538954;28;20329;-65
2022/10/14 12:36:07;;;;;;;;;;;;;;;;;;10538873;28;19925;-65
2022/10/14 12:41:10;;;;;;;;;;;;;;;;;;10546130;28;19924;-66
2022/10/14 12:46:12;;;;;;;;;;;;;;;;;;10546343;28;20256;-66
2022/10/14 12:51:14;;;;;;;;;;;;;;;;;;10546803;28;19924;-66
2022/10/14 12:56:16;;;;;;;;;;;;;;;;;;10545988;28;19924;-66
2022/10/14 13:01:20;;;;;;;;;;;;;;;;;;10546497;28;20041;-66
2022/10/14 13:06:22;;;;;;;;;;;;;;;;;;10546222;28;19932;-66
2022/10/14 13:11:24;;;;;;;;;;;;;;;;;;10546002;28;19978;-66
2022/10/14 13:16:26;;;;;;;;;;;;;;;;;;10545040;28;20267;-66
2022/10/14 13:21:31;;;;;;;;;;;;;;;;;;10544162;28;19928;-66
2022/10/14 13:26:33;;;;;;;;;;;;;;;;;;10544721;28;20263;-66
2022/10/14 13:31:36;;;;;;;;;;;;;;;;;;10544530;28;20053;-66
2022/10/14 13:36:38;;;;;;;;;;;;;;;;;;10545002;28;19924;-66
2022/10/14 13:41:40;;;;;;;;;;;;;;;;;;10544053;28;20428;-66
2022/10/14 13:46:43;;;;;;;;;;;;;;;;;;10544614;28;19924;-66
2022/10/14 13:51:45;;;;;;;;;;;;;;;;;;10542544;28;19985;-66
2022/10/14 13:56:47;;;;;;;;;;;;;;;;;;10543527;28;20036;-66
2022/10/14 14:01:49;;;;;;;;;;;;;;;;;;10543483;28;19924;-65
2022/10/14 14:06:51;;;;;;;;;;;;;;;;;;10543768;28;19964;-65
2022/10/14 14:12:13;;;;;;;;;;;;;;;;;;10543546;28;19925;-66
2022/10/14 14:17:15;;;;;;;;;;;;;;;;;;10543313;28;19924;-66
2022/10/14 14:22:17;;;;;;;;;;;;;;;;;;10542403;28;20431;-66
2022/10/14 14:27:20;;;;;;;;;;;;;;;;;;10542937;28;19969;-66
2022/10/14 14:32:22;;;;;;;;;;;;;;;;;;10542769;28;19935;-66
2022/10/14 14:37:24;;;;;;;;;;;;;;;;;;10542422;28;19924;-66
2022/10/14 14:42:46;;;;;;;;;;;;;;;;;;10541494;28;19959;-66
2022/10/14 14:47:48;;;;;;;;;;;;;;;;;;10542097;28;19977;-66
2022/10/14 14:52:50;;;;;;;;;;;;;;;;;;10541354;28;19989;-66
2022/10/14 14:57:52;;;;;;;;;;;;;;;;;;10541873;28;19936;-66
2022/10/14 15:02:54;;;;;;;;;;;;;;;;;;10540415;28;20328;-66
2022/10/14 15:07:56;;;;;;;;;;;;;;;;;;10541494;28;19924;-66
2022/10/14 15:12:58;;;;;;;;;;;;;;;;;;10540773;28;19924;-66
2022/10/14 15:18:01;;;;;;;;;;;;;;;;;;10541127;28;19931;-66
2022/10/14 15:23:03;;;;;;;;;;;;;;;;;;10540950;28;19924;-66
2022/10/14 15:28:05;;;;;;;;;;;;;;;;;;10540238;28;20374;-66
2022/10/14 15:33:07;;;;;;;;;;;;;;;;;;10540114;28;19924;-66
2022/10/14 15:38:09;;;;;;;;;;;;;;;;;;10540057;28;19924;-66
2022/10/14 15:43:16;;;;;;;;;;;;;;;;;;10540551;28;19924;-66
2022/10/14 15:48:19;;;;;;;;;;;;;;;;;;10539799;28;19947;-66
2022/10/14 15:53:21;;;;;;;;;;;;;;;;;;10540325;28;19924;-66
2022/10/14 15:58:23;;;;;;;;;;;;;;;;;;10539921;28;19928;-66
2022/10/14 16:03:25;;;;;;;;;;;;;;;;;;10539493;28;19924;-66
2022/10/14 16:08:28;;;;;;;;;;;;;;;;;;10539394;28;19924;-66
2022/10/14 16:13:30;;;;;;;;;;;;;;;;;;10542724;28;19974;-66
2022/10/14 16:18:32;;;;;;;;;;;;;;;;;;10547474;28;19981;-66
2022/10/14 16:23:36;;;;;;;;;;;;;;;;;;10547165;28;20371;-66
2022/10/14 16:28:38;;;;;;;;;;;;;;;;;;10547068;28;20362;-66
2022/10/14 16:33:40;;;;;;;;;;;;;;;;;;10547449;28;19924;-66
2022/10/14 16:38:45;;;;;;;;;;;;;;;;;;10547339;28;19924;-66
2022/10/14 16:43:47;;;;;;;;;;;;;;;;;;10546426;28;19924;-66
2022/10/14 16:48:49;;;;;;;;;;;;;;;;;;10546357;28;20442;-66
2022/10/14 16:53:52;;;;;;;;;;;;;;;;;;10546061;28;19978;-66
2022/10/14 16:58:54;;;;;;;;;;;;;;;;;;10546581;28;19924;-66
2022/10/14 17:03:56;;;;;;;;;;;;;;;;;;10545419;28;19957;-66
2022/10/14 17:08:58;;;;;;;;;;;;;;;;;;10546139;28;19932;-66
2022/10/14 17:14:00;;;;;;;;;;;;;;;;;;10545303;28;20437;-66
2022/10/14 17:19:02;;;;;;;;;;;;;;;;;;10545099;28;20306;-66
2022/10/14 17:24:05;;;;;;;;;;;;;;;;;;10545186;28;19924;-66
2022/10/14 17:29:07;;;;;;;;;;;;;;;;;;10544734;28;20333;-66
2022/10/14 17:34:09;;;;;;;;;;;;;;;;;;10544550;28;20321;-66
2022/10/14 17:39:13;;;;;;;;;;;;;;;;;;10545339;28;19973;-66
2022/10/14 17:44:19;;;;;;;;;;;;;;;;;;10544694;28;19924;-66
2022/10/14 17:49:21;;;;;;;;;;;;;;;;;;10543895;28;20263;-66
2022/10/14 17:54:23;;;;;;;;;;;;;;;;;;10544289;28;19924;-66
2022/10/14 17:59:26;;;;;;;;;;;;;;;;;;10543478;28;20371;-66
2022/10/14 18:04:28;;;;;;;;;;;;;;;;;;10543144;28;19924;-66
2022/10/14 18:09:30;;;;;;;;;;;;;;;;;;10543531;28;19928;-66
2022/10/14 18:14:32;;;;;;;;;;;;;;;;;;10543451;28;19932;-66
2022/10/14 18:19:35;;;;;;;;;;;;;;;;;;10542965;28;19924;-66
2022/10/14 18:24:38;;;;;;;;;;;;;;;;;;10540600;28;19997;-66
2022/10/14 18:29:41;;;;;;;;;;;;;;;;;;10542080;28;19924;-66
2022/10/14 18:34:43;;;;;;;;;;;;;;;;;;10541123;28;19981;-66
2022/10/14 18:39:47;;;;;;;;;;;;;;;;;;10541802;28;20215;-66
2022/10/14 18:44:49;;;;;;;;;;;;;;;;;;10540594;28;19924;-66
2022/10/14 18:49:51;;;;;;;;;;;;;;;;;;10541457;28;20333;-66
2022/10/14 18:54:53;;;;;;;;;;;;;;;;;;10541140;28;19935;-66
2022/10/14 18:59:55;;;;;;;;;;;;;;;;;;10541776;28;19927;-66
2022/10/14 19:04:57;;;;;;;;;;;;;;;;;;10508383;28;20284;-66
2022/10/14 19:09:59;;;;;;;;;;;;;;;;;;10497985;28;19931;-66
2022/10/14 19:15:01;;;;;;;;;;;;;;;;;;10498732;28;20425;-66
2022/10/14 19:20:05;;;;;;;;;;;;;;;;;;10498394;28;19929;-66
2022/10/14 19:25:08;;;;;;;;;;;;;;;;;;10498078;28;19929;-66
2022/10/14 19:30:10;;;;;;;;;;;;;;;;;;10494713;28;20333;-66
2022/10/14 19:35:12;;;;;;;;;;;;;;;;;;10496954;28;19924;-66
2022/10/14 19:40:14;;;;;;;;;;;;;;;;;;10497882;28;19929;-66
2022/10/14 19:45:19;;;;;;;;;;;;;;;;;;10498715;28;19947;-66
2022/10/14 19:50:21;;;;;;;;;;;;;;;;;;10505886;28;19970;-66
2022/10/14 19:55:23;;;;;;;;;;;;;;;;;;10488363;28;19928;-66
2022/10/14 20:00:25;;;;;;;;;;;;;;;;;;10506245;28;19947;-66
2022/10/14 20:05:27;;;;;;;;;;;;;;;;;;10505956;28;19925;-66
2022/10/14 20:10:30;;;;;;;;;;;;;;;;;;10505486;28;19924;-66
2022/10/14 20:15:32;;;;;;;;;;;;;;;;;;10506163;28;19928;-66
2022/10/14 20:20:34;;;;;;;;;;;;;;;;;;10505572;28;19929;-66
2022/10/14 20:25:36;;;;;;;;;;;;;;;;;;10504215;28;19925;-66
2022/10/14 20:30:38;;;;;;;;;;;;;;;;;;10504913;28;19928;-66
2022/10/14 20:35:40;;;;;;;;;;;;;;;;;;10505559;28;19924;-66
2022/10/14 20:40:42;;;;;;;;;;;;;;;;;;10502677;28;20338;-66
2022/10/14 20:45:44;;;;;;;;;;;;;;;;;;10505054;28;19928;-66
2022/10/14 20:50:46;;;;;;;;;;;;;;;;;;10504920;28;19935;-66
2022/10/14 20:55:48;;;;;;;;;;;;;;;;;;10503138;28;19929;-66
2022/10/14 21:00:50;;;;;;;;;;;;;;;;;;10503904;28;19924;-65
2022/10/14 21:05:52;;;;;;;;;;;;;;;;;;10501643;28;20445;-66
2022/10/14 21:10:54;;;;;;;;;;;;;;;;;;10503281;28;19928;-66
2022/10/14 21:15:56;;;;;;;;;;;;;;;;;;10503307;28;19986;-65
2022/10/14 21:20:59;;;;;;;;;;;;;;;;;;10503667;28;19924;-66
2022/10/14 21:26:01;;;;;;;;;;;;;;;;;;10497629;28;19931;-66
2022/10/14 21:31:03;;;;;;;;;;;;;;;;;;10499975;28;19978;-66
2022/10/14 21:36:05;;;;;;;;;;;;;;;;;;10506422;28;20341;-66
2022/10/14 21:41:07;;;;;;;;;;;;;;;;;;10530520;28;19928;-65
2022/10/14 21:46:09;;;;;;;;;;;;;;;;;;10501917;28;20376;-66
2022/10/14 21:51:11;;;;;;;;;;;;;;;;;;10502313;28;19925;-65
2022/10/14 21:56:13;;;;;;;;;;;;;;;;;;10540593;28;20375;-66
2022/10/14 22:01:15;;;;;;;;;;;;;;;;;;10543856;28;19928;-65
2022/10/14 22:06:17;;;;;;;;;;;;;;;;;;10499757;28;19931;-65
2022/10/14 22:11:19;;;;;;;;;;;;;;;;;;10506562;28;19970;-66
2022/10/14 22:16:21;;;;;;;;;;;;;;;;;;10499036;28;20341;-65
2022/10/14 22:21:24;;;;;;;;;;;;;;;;;;10500495;28;19928;-65
2022/10/14 22:26:26;;;;;;;;;;;;;;;;;;10496943;28;20325;-65
2022/10/14 22:31:28;;;;;;;;;;;;;;;;;;10506869;28;19977;-65
2022/10/14 22:36:30;;;;;;;;;;;;;;;;;;10523385;28;20295;-65
2022/10/14 22:41:32;;;;;;;;;;;;;;;;;;10486765;28;19967;-65
2022/10/14 22:46:36;;;;;;;;;;;;;;;;;;10496646;28;20008;-65
2022/10/14 22:51:41;;;;;;;;;;;;;;;;;;10499319;28;19932;-65
2022/10/14 22:56:43;;;;;;;;;;;;;;;;;;10460226;28;20058;-65
2022/10/14 23:01:45;;;;;;;;;;;;;;;;;;10482954;28;20440;-65
2022/10/14 23:06:49;;;;;;;;;;;;;;;;;;10539239;28;19977;-65
2022/10/14 23:11:51;;;;;;;;;;;;;;;;;;10538805;28;19931;-65
2022/10/14 23:16:53;;;;;;;;;;;;;;;;;;10535153;22;19925;-66
2022/10/14 23:21:55;;;;;;;;;;;;;;;;;;10497460;28;19924;-65
2022/10/14 23:26:57;;;;;;;;;;;;;;;;;;10496825;28;20382;-65
2022/10/14 23:31:59;;;;;;;;;;;;;;;;;;10497132;28;19982;-65
2022/10/14 23:37:01;;;;;;;;;;;;;;;;;;10495815;28;19994;-65
2022/10/14 23:42:03;;;;;;;;;;;;;;;;;;10497895;28;19929;-65
2022/10/14 23:47:05;;;;;;;;;;;;;;;;;;10497214;28;19925;-65
2022/10/14 23:52:08;;;;;;;;;;;;;;;;;;10497411;28;19929;-66
2022/10/14 23:57:10;;;;;;;;;;;;;;;;;;10497854;28;19982;-65
